sensor_id;sensor_type;location;lat;lon;timestamp;pressure;altitude;pressure_sealevel;temperature;humidity
57606;BME280;43430;48.204;11.556;2023-02-19T00:02:21;96393.41;;;9.83;100.00
57606;BME280;43430;48.204;11.556;2023-02-19T00:04:47;96391.00;;;9.82;100.00
57606;BME280;43430;48.204;11.556;2023-02-19T00:07:12;96389.56;;;9.79;100.00
57606;BME280;43430;48.204;11.556;2023-02-19T00:09:37;96390.38;;;9.80;100.00
57606;BME280;43430;48.204;11.556;2023-02-19T00:12:02;96388.16;;;9.77;100.00
57606;BME280;43430;48.204;11.556;2023-02-19T00:14:28;96382.47;;;9.80;100.00
57606;BME280;43430;48.204;11.556;2023-02-19T00:16:53;96387.75;;;9.80;100.00
57606;BME280;43430;48.204;11.556;2023-02-19T00:19:19;96381.28;;;9.75;100.00
57606;BME280;43430;48.204;11.556;2023-02-19T00:21:44;96377.22;;;9.73;100.00
57606;BME280;43430;48.204;11.556;2023-02-19T00:24:10;96381.88;;;9.78;100.00
57606;BME280;43430;48.204;11.556;2023-02-19T00:26:36;96372.97;;;9.72;100.00
57606;BME280;43430;48.204;11.556;2023-02-19T00:29:02;96374.81;;;9.71;100.00
57606;BME280;43430;48.204;11.556;2023-02-19T00:33:56;96370.34;;;9.79;100.00
57606;BME280;43430;48.204;11.556;2023-02-19T00:36:21;96365.31;;;9.70;100.00
57606;BME280;43430;48.204;11.556;2023-02-19T00:38:47;96363.25;;;9.72;100.00
57606;BME280;43430;48.204;11.556;2023-02-19T00:41:13;96358.38;;;9.76;100.00
57606;BME280;43430;48.204;11.556;2023-02-19T00:46:13;96362.84;;;9.69;100.00
57606;BME280;43430;48.204;11.556;2023-02-19T00:48:38;96354.97;;;9.69;100.00
57606;BME280;43430;48.204;11.556;2023-02-19T00:51:04;96362.25;;;9.67;100.00
57606;BME280;43430;48.204;11.556;2023-02-19T00:53:29;96356.38;;;9.65;100.00
57606;BME280;43430;48.204;11.556;2023-02-19T00:55:54;96357.81;;;9.67;100.00
57606;BME280;43430;48.204;11.556;2023-02-19T00:58:19;96354.97;;;9.69;100.00
57606;BME280;43430;48.204;11.556;2023-02-19T01:00:45;96346.88;;;9.64;100.00
57606;BME280;43430;48.204;11.556;2023-02-19T01:03:10;96348.47;;;9.71;100.00
57606;BME280;43430;48.204;11.556;2023-02-19T01:05:35;96347.66;;;9.71;100.00
57606;BME280;43430;48.204;11.556;2023-02-19T01:08:01;96340.34;;;9.73;100.00
57606;BME280;43430;48.204;11.556;2023-02-19T01:10:26;96344.81;;;9.72;100.00
57606;BME280;43430;48.204;11.556;2023-02-19T01:12:51;96345.63;;;9.73;100.00
57606;BME280;43430;48.204;11.556;2023-02-19T01:15:16;96352.53;;;9.74;100.00
57606;BME280;43430;48.204;11.556;2023-02-19T01:17:42;96348.25;;;9.73;100.00
57606;BME280;43430;48.204;11.556;2023-02-19T01:20:07;96339.34;;;9.74;100.00
57606;BME280;43430;48.204;11.556;2023-02-19T01:22:32;96337.72;;;9.73;100.00
57606;BME280;43430;48.204;11.556;2023-02-19T01:24:58;96334.28;;;9.72;100.00
57606;BME280;43430;48.204;11.556;2023-02-19T01:27:23;96334.28;;;9.72;100.00
57606;BME280;43430;48.204;11.556;2023-02-19T01:29:48;96334.91;;;9.74;100.00
57606;BME280;43430;48.204;11.556;2023-02-19T01:32:13;96319.28;;;9.73;100.00
57606;BME280;43430;48.204;11.556;2023-02-19T01:34:39;96321.91;;;9.73;100.00
57606;BME280;43430;48.204;11.556;2023-02-19T01:37:04;96325.75;;;9.77;100.00
57606;BME280;43430;48.204;11.556;2023-02-19T01:39:32;96328.22;;;9.72;100.00
57606;BME280;43430;48.204;11.556;2023-02-19T01:41:57;96323.34;;;9.75;100.00
57606;BME280;43430;48.204;11.556;2023-02-19T01:46:47;96318.47;;;9.79;100.00
57606;BME280;43430;48.204;11.556;2023-02-19T01:49:22;96313.41;;;9.78;100.00
57606;BME280;43430;48.204;11.556;2023-02-19T01:51:53;96298.63;;;9.77;100.00
57606;BME280;43430;48.204;11.556;2023-02-19T01:54:21;96303.88;;;9.77;100.00
57606;BME280;43430;48.204;11.556;2023-02-19T01:56:49;96312.00;;;9.75;100.00
57606;BME280;43430;48.204;11.556;2023-02-19T01:59:15;96309.16;;;9.70;100.00
57606;BME280;43430;48.204;11.556;2023-02-19T02:01:41;96307.78;;;9.67;100.00
57606;BME280;43430;48.204;11.556;2023-02-19T02:04:06;96300.28;;;9.71;100.00
57606;BME280;43430;48.204;11.556;2023-02-19T02:06:42;96303.09;;;9.69;100.00
57606;BME280;43430;48.204;11.556;2023-02-19T02:09:10;96304.13;;;9.62;100.00
57606;BME280;43430;48.204;11.556;2023-02-19T02:11:55;96300.09;;;9.52;100.00
57606;BME280;43430;48.204;11.556;2023-02-19T02:14:21;96295.25;;;9.49;100.00
57606;BME280;43430;48.204;11.556;2023-02-19T02:19:30;96304.41;;;9.47;100.00
57606;BME280;43430;48.204;11.556;2023-02-19T02:32:24;96284.97;;;9.41;100.00
57606;BME280;43430;48.204;11.556;2023-02-19T02:34:58;96282.16;;;9.36;100.00
57606;BME280;43430;48.204;11.556;2023-02-19T02:37:25;96280.72;;;9.34;100.00
57606;BME280;43430;48.204;11.556;2023-02-19T02:39:52;96274.66;;;9.33;100.00
57606;BME280;43430;48.204;11.556;2023-02-19T02:42:18;96279.72;;;9.35;100.00
57606;BME280;43430;48.204;11.556;2023-02-19T02:44:53;96265.13;;;9.39;100.00
57606;BME280;43430;48.204;11.556;2023-02-19T02:47:49;96277.88;;;9.35;100.00
57606;BME280;43430;48.204;11.556;2023-02-19T02:50:18;96266.16;;;9.31;100.00
57606;BME280;43430;48.204;11.556;2023-02-19T02:52:44;96271.25;;;9.26;100.00
57606;BME280;43430;48.204;11.556;2023-02-19T02:55:29;96273.50;;;9.02;100.00
57606;BME280;43430;48.204;11.556;2023-02-19T02:57:57;96281.59;;;8.68;100.00
57606;BME280;43430;48.204;11.556;2023-02-19T03:00:23;96280.00;;;8.53;100.00
57606;BME280;43430;48.204;11.556;2023-02-19T03:02:48;96267.63;;;8.41;100.00
57606;BME280;43430;48.204;11.556;2023-02-19T03:05:21;96292.06;;;8.35;100.00
57606;BME280;43430;48.204;11.556;2023-02-19T03:08:09;96293.66;;;8.29;100.00
57606;BME280;43430;48.204;11.556;2023-02-19T03:10:42;96301.50;;;8.22;100.00
57606;BME280;43430;48.204;11.556;2023-02-19T03:13:15;96299.06;;;8.07;100.00
57606;BME280;43430;48.204;11.556;2023-02-19T03:16:07;96302.41;;;7.81;100.00
57606;BME280;43430;48.204;11.556;2023-02-19T03:18:53;96312.78;;;7.55;100.00
57606;BME280;43430;48.204;11.556;2023-02-19T03:21:38;96327.00;;;7.39;100.00
57606;BME280;43430;48.204;11.556;2023-02-19T03:24:05;96341.34;;;7.36;100.00
57606;BME280;43430;48.204;11.556;2023-02-19T03:26:49;96344.91;;;7.29;100.00
57606;BME280;43430;48.204;11.556;2023-02-19T03:29:18;96347.91;;;7.26;100.00
57606;BME280;43430;48.204;11.556;2023-02-19T03:31:50;96352.16;;;7.27;100.00
57606;BME280;43430;48.204;11.556;2023-02-19T03:34:19;96361.59;;;7.21;100.00
57606;BME280;43430;48.204;11.556;2023-02-19T03:36:47;96364.00;;;7.16;100.00
57606;BME280;43430;48.204;11.556;2023-02-19T03:39:16;96361.94;;;7.11;100.00
57606;BME280;43430;48.204;11.556;2023-02-19T03:49:21;96393.72;;;7.02;100.00
57606;BME280;43430;48.204;11.556;2023-02-19T03:52:09;96388.28;;;7.03;100.00
57606;BME280;43430;48.204;11.556;2023-02-19T03:54:38;96384.25;;;7.01;100.00
57606;BME280;43430;48.204;11.556;2023-02-19T03:57:10;96380.81;;;7.00;100.00
57606;BME280;43430;48.204;11.556;2023-02-19T04:02:08;96398.28;;;6.93;100.00
57606;BME280;43430;48.204;11.556;2023-02-19T04:04:37;96399.38;;;6.99;100.00
57606;BME280;43430;48.204;11.556;2023-02-19T04:07:03;96389.03;;;6.97;100.00
57606;BME280;43430;48.204;11.556;2023-02-19T04:09:35;96395.31;;;6.96;100.00
57606;BME280;43430;48.204;11.556;2023-02-19T04:12:02;96387.22;;;6.98;100.00
57606;BME280;43430;48.204;11.556;2023-02-19T04:14:29;96386.84;;;7.01;100.00
57606;BME280;43430;48.204;11.556;2023-02-19T04:16:58;96376.75;;;6.98;100.00
57606;BME280;43430;48.204;11.556;2023-02-19T04:19:24;96371.94;;;7.01;100.00
57606;BME280;43430;48.204;11.556;2023-02-19T04:21:50;96373.94;;;6.99;100.00
57606;BME280;43430;48.204;11.556;2023-02-19T04:24:18;96388.03;;;6.98;100.00
57606;BME280;43430;48.204;11.556;2023-02-19T04:26:46;96388.03;;;6.98;100.00
57606;BME280;43430;48.204;11.556;2023-02-19T04:29:11;96391.50;;;6.99;100.00
57606;BME280;43430;48.204;11.556;2023-02-19T04:31:37;96375.56;;;7.00;100.00
57606;BME280;43430;48.204;11.556;2023-02-19T04:34:02;96379.19;;;6.99;100.00
57606;BME280;43430;48.204;11.556;2023-02-19T04:36:28;96382.41;;;7.01;100.00
57606;BME280;43430;48.204;11.556;2023-02-19T04:38:53;96399.78;;;7.02;100.00
57606;BME280;43430;48.204;11.556;2023-02-19T04:47:09;96398.59;;;7.05;100.00
57606;BME280;43430;48.204;11.556;2023-02-19T04:49:48;96385.72;;;7.10;100.00
57606;BME280;43430;48.204;11.556;2023-02-19T04:52:22;96385.34;;;7.13;100.00
57606;BME280;43430;48.204;11.556;2023-02-19T04:57:39;96382.53;;;7.14;100.00
57606;BME280;43430;48.204;11.556;2023-02-19T05:00:05;96387.16;;;7.12;100.00
57606;BME280;43430;48.204;11.556;2023-02-19T05:02:30;96395.41;;;7.09;100.00
57606;BME280;43430;48.204;11.556;2023-02-19T05:04:58;96388.59;;;7.15;100.00
57606;BME280;43430;48.204;11.556;2023-02-19T05:07:24;96388.97;;;7.12;100.00
57606;BME280;43430;48.204;11.556;2023-02-19T05:09:55;96396.28;;;7.17;100.00
57606;BME280;43430;48.204;11.556;2023-02-19T05:12:21;96382.97;;;7.18;100.00
57606;BME280;43430;48.204;11.556;2023-02-19T05:14:46;96374.13;;;7.19;100.00
57606;BME280;43430;48.204;11.556;2023-02-19T05:17:11;96383.38;;;7.22;100.00
57606;BME280;43430;48.204;11.556;2023-02-19T05:19:36;96379.78;;;7.23;100.00
57606;BME280;43430;48.204;11.556;2023-02-19T05:22:02;96381.19;;;7.25;100.00
57606;BME280;43430;48.204;11.556;2023-02-19T05:24:27;96384.44;;;7.27;100.00
57606;BME280;43430;48.204;11.556;2023-02-19T05:26:56;96386.28;;;7.27;100.00
57606;BME280;43430;48.204;11.556;2023-02-19T05:29:25;96392.31;;;7.27;100.00
57606;BME280;43430;48.204;11.556;2023-02-19T05:31:50;96391.75;;;7.32;100.00
57606;BME280;43430;48.204;11.556;2023-02-19T05:34:16;96401.00;;;7.28;100.00
57606;BME280;43430;48.204;11.556;2023-02-19T05:36:44;96389.97;;;7.39;100.00
57606;BME280;43430;48.204;11.556;2023-02-19T05:39:10;96396.59;;;7.35;100.00
57606;BME280;43430;48.204;11.556;2023-02-19T05:41:35;96402.06;;;7.33;100.00
57606;BME280;43430;48.204;11.556;2023-02-19T05:44:01;96400.03;;;7.35;100.00
57606;BME280;43430;48.204;11.556;2023-02-19T05:46:27;96403.09;;;7.39;100.00
57606;BME280;43430;48.204;11.556;2023-02-19T05:48:59;96410.16;;;7.38;100.00
57606;BME280;43430;48.204;11.556;2023-02-19T05:51:24;96412.78;;;7.38;100.00
57606;BME280;43430;48.204;11.556;2023-02-19T05:53:53;96403.91;;;7.40;100.00
57606;BME280;43430;48.204;11.556;2023-02-19T05:58:50;96414.97;;;7.35;100.00
57606;BME280;43430;48.204;11.556;2023-02-19T06:01:17;96400.09;;;7.42;100.00
57606;BME280;43430;48.204;11.556;2023-02-19T06:03:42;96399.72;;;7.45;100.00
57606;BME280;43430;48.204;11.556;2023-02-19T06:06:17;96400.91;;;7.43;100.00
57606;BME280;43430;48.204;11.556;2023-02-19T06:08:42;96406.34;;;7.41;100.00
57606;BME280;43430;48.204;11.556;2023-02-19T06:11:08;96401.53;;;7.45;100.00
57606;BME280;43430;48.204;11.556;2023-02-19T06:13:33;96398.69;;;7.46;100.00
57606;BME280;43430;48.204;11.556;2023-02-19T06:15:58;96401.56;;;7.51;100.00
57606;BME280;43430;48.204;11.556;2023-02-19T06:18:24;96405.44;;;7.55;100.00
57606;BME280;43430;48.204;11.556;2023-02-19T06:20:49;96409.25;;;7.53;100.00
57606;BME280;43430;48.204;11.556;2023-02-19T06:23:14;96404.25;;;7.58;100.00
57606;BME280;43430;48.204;11.556;2023-02-19T06:25:40;96397.81;;;7.60;100.00
57606;BME280;43430;48.204;11.556;2023-02-19T06:28:05;96404.47;;;7.63;100.00
57606;BME280;43430;48.204;11.556;2023-02-19T06:30:30;96399.03;;;7.65;100.00
57606;BME280;43430;48.204;11.556;2023-02-19T06:32:56;96399.84;;;7.65;100.00
57606;BME280;43430;48.204;11.556;2023-02-19T06:35:21;96406.53;;;7.68;100.00
57606;BME280;43430;48.204;11.556;2023-02-19T06:37:47;96400.28;;;7.69;100.00
57606;BME280;43430;48.204;11.556;2023-02-19T06:40:15;96409.72;;;7.63;100.00
57606;BME280;43430;48.204;11.556;2023-02-19T06:42:40;96413.78;;;7.66;100.00
57606;BME280;43430;48.204;11.556;2023-02-19T06:45:06;96417.84;;;7.68;100.00
57606;BME280;43430;48.204;11.556;2023-02-19T06:47:31;96415.25;;;7.75;100.00
57606;BME280;43430;48.204;11.556;2023-02-19T06:49:58;96416.50;;;7.79;100.00
57606;BME280;43430;48.204;11.556;2023-02-19T06:52:23;96424.53;;;7.77;100.00
57606;BME280;43430;48.204;11.556;2023-02-19T06:54:48;96432.25;;;7.79;100.00
57606;BME280;43430;48.204;11.556;2023-02-19T06:57:13;96435.66;;;7.79;100.00
57606;BME280;43430;48.204;11.556;2023-02-19T06:59:39;96435.28;;;7.82;100.00
57606;BME280;43430;48.204;11.556;2023-02-19T07:02:04;96438.53;;;7.84;100.00
57606;BME280;43430;48.204;11.556;2023-02-19T07:04:29;96447.59;;;7.82;100.00
57606;BME280;43430;48.204;11.556;2023-02-19T07:06:55;96452.84;;;7.82;100.00
57606;BME280;43430;48.204;11.556;2023-02-19T07:09:20;96461.75;;;7.88;100.00
57606;BME280;43430;48.204;11.556;2023-02-19T07:11:45;96461.34;;;7.84;100.00
57606;BME280;43430;48.204;11.556;2023-02-19T07:14:13;96462.19;;;7.91;100.00
57606;BME280;43430;48.204;11.556;2023-02-19T07:16:39;96465.59;;;7.85;100.00
57606;BME280;43430;48.204;11.556;2023-02-19T07:19:04;96450.44;;;7.87;100.00
57606;BME280;43430;48.204;11.556;2023-02-19T07:21:30;96456.72;;;7.86;100.00
57606;BME280;43430;48.204;11.556;2023-02-19T07:23:55;96463.63;;;7.94;100.00
57606;BME280;43430;48.204;11.556;2023-02-19T07:26:21;96463.44;;;7.95;100.00
57606;BME280;43430;48.204;11.556;2023-02-19T07:28:47;96464.25;;;7.96;100.00
57606;BME280;43430;48.204;11.556;2023-02-19T07:31:13;96467.47;;;7.98;100.00
57606;BME280;43430;48.204;11.556;2023-02-19T07:33:41;96474.41;;;8.05;100.00
57606;BME280;43430;48.204;11.556;2023-02-19T07:36:06;96479.66;;;8.05;100.00
57606;BME280;43430;48.204;11.556;2023-02-19T07:38:32;96488.16;;;8.07;100.00
57606;BME280;43430;48.204;11.556;2023-02-19T07:40:58;96486.91;;;8.03;100.00
57606;BME280;43430;48.204;11.556;2023-02-19T07:43:24;96485.25;;;7.96;100.00
57606;BME280;43430;48.204;11.556;2023-02-19T07:45:49;96498.78;;;7.93;100.00
57606;BME280;43430;48.204;11.556;2023-02-19T07:48:15;96504.78;;;7.87;100.00
57606;BME280;43430;48.204;11.556;2023-02-19T07:50:40;96525.19;;;7.91;100.00
57606;BME280;43430;48.204;11.556;2023-02-19T07:53:06;96533.47;;;7.88;100.00
57606;BME280;43430;48.204;11.556;2023-02-19T07:55:31;96530.81;;;7.81;100.00
57606;BME280;43430;48.204;11.556;2023-02-19T07:57:58;96546.13;;;7.78;100.00
57606;BME280;43430;48.204;11.556;2023-02-19T08:00:23;96557.31;;;7.65;100.00
57606;BME280;43430;48.204;11.556;2023-02-19T08:02:50;96566.63;;;7.68;100.00
57606;BME280;43430;48.204;11.556;2023-02-19T08:05:27;96566.00;;;7.66;100.00
57606;BME280;43430;48.204;11.556;2023-02-19T08:07:54;96568.06;;;7.70;100.00
57606;BME280;43430;48.204;11.556;2023-02-19T08:10:19;96574.50;;;7.68;100.00
57606;BME280;43430;48.204;11.556;2023-02-19T08:13:03;96577.56;;;7.71;100.00
57606;BME280;43430;48.204;11.556;2023-02-19T08:15:46;96582.63;;;7.73;100.00
57606;BME280;43430;48.204;11.556;2023-02-19T08:18:12;96568.31;;;7.75;100.00
57606;BME280;43430;48.204;11.556;2023-02-19T08:20:38;96573.19;;;7.78;100.00
57606;BME280;43430;48.204;11.556;2023-02-19T08:23:03;96572.44;;;7.84;100.00
57606;BME280;43430;48.204;11.556;2023-02-19T08:25:29;96577.69;;;7.84;100.00
57606;BME280;43430;48.204;11.556;2023-02-19T08:27:54;96566.84;;;7.94;100.00
57606;BME280;43430;48.204;11.556;2023-02-19T08:30:20;96554.72;;;7.93;100.00
57606;BME280;43430;48.204;11.556;2023-02-19T08:32:45;96556.00;;;8.04;100.00
57606;BME280;43430;48.204;11.556;2023-02-19T08:35:10;96549.94;;;8.03;100.00
57606;BME280;43430;48.204;11.556;2023-02-19T08:37:36;96549.19;;;8.09;100.00
57606;BME280;43430;48.204;11.556;2023-02-19T08:40:01;96551.22;;;8.14;100.00
57606;BME280;43430;48.204;11.556;2023-02-19T08:42:29;96563.66;;;8.27;100.00
57606;BME280;43430;48.204;11.556;2023-02-19T08:44:55;96551.69;;;8.24;100.00
57606;BME280;43430;48.204;11.556;2023-02-19T08:47:20;96555.94;;;8.25;100.00
57606;BME280;43430;48.204;11.556;2023-02-19T08:49:45;96550.91;;;8.24;100.00
57606;BME280;43430;48.204;11.556;2023-02-19T08:52:13;96555.56;;;8.28;100.00
57606;BME280;43430;48.204;11.556;2023-02-19T08:54:39;96560.81;;;8.28;100.00
57606;BME280;43430;48.204;11.556;2023-02-19T08:57:04;96545.47;;;8.32;100.00
57606;BME280;43430;48.204;11.556;2023-02-19T08:59:32;96541.34;;;8.44;100.00
57606;BME280;43430;48.204;11.556;2023-02-19T09:02:00;96545.00;;;8.43;100.00
57606;BME280;43430;48.204;11.556;2023-02-19T09:04:25;96546.88;;;8.63;100.00
57606;BME280;43430;48.204;11.556;2023-02-19T09:06:51;96555.66;;;8.76;100.00
57606;BME280;43430;48.204;11.556;2023-02-19T09:09:16;96544.56;;;8.81;100.00
57606;BME280;43430;48.204;11.556;2023-02-19T09:11:44;96551.56;;;8.74;100.00
57606;BME280;43430;48.204;11.556;2023-02-19T09:14:09;96538.03;;;8.77;100.00
57606;BME280;43430;48.204;11.556;2023-02-19T09:16:35;96549.56;;;8.76;100.00
57606;BME280;43430;48.204;11.556;2023-02-19T09:19:03;96539.50;;;8.86;100.00
57606;BME280;43430;48.204;11.556;2023-02-19T09:21:31;96569.38;;;8.72;100.00
57606;BME280;43430;48.204;11.556;2023-02-19T09:23:57;96558.19;;;8.28;100.00
57606;BME280;43430;48.204;11.556;2023-02-19T09:26:22;96554.09;;;8.19;100.00
57606;BME280;43430;48.204;11.556;2023-02-19T09:28:49;96560.81;;;8.00;100.00
57606;BME280;43430;48.204;11.556;2023-02-19T09:31:14;96555.25;;;7.82;100.00
57606;BME280;43430;48.204;11.556;2023-02-19T09:33:43;96553.22;;;7.84;100.00
57606;BME280;43430;48.204;11.556;2023-02-19T09:36:09;96548.50;;;7.73;100.00
57606;BME280;43430;48.204;11.556;2023-02-19T09:38:34;96563.19;;;7.67;100.00
57606;BME280;43430;48.204;11.556;2023-02-19T09:43:44;96565.06;;;7.73;100.00
57606;BME280;43430;48.204;11.556;2023-02-19T09:48:58;96571.72;;;7.97;100.00
57606;BME280;43430;48.204;11.556;2023-02-19T09:51:26;96571.38;;;8.07;100.00
57606;BME280;43430;48.204;11.556;2023-02-19T09:54:09;96558.03;;;8.02;100.00
57606;BME280;43430;48.204;11.556;2023-02-19T09:56:37;96551.94;;;8.01;100.00
57606;BME280;43430;48.204;11.556;2023-02-19T09:59:03;96555.84;;;8.05;100.00
57606;BME280;43430;48.204;11.556;2023-02-19T10:01:29;96546.72;;;8.08;100.00
57606;BME280;43430;48.204;11.556;2023-02-19T10:03:59;96553.81;;;8.07;100.00
57606;BME280;43430;48.204;11.556;2023-02-19T10:06:26;96541.66;;;8.35;100.00
57606;BME280;43430;48.204;11.556;2023-02-19T10:09:28;96546.81;;;8.49;100.00
57606;BME280;43430;48.204;11.556;2023-02-19T10:11:46;96538.63;;;8.66;100.00
57606;BME280;43430;48.204;11.556;2023-02-19T10:14:14;96540.13;;;8.88;100.00
57606;BME280;43430;48.204;11.556;2023-02-19T10:16:41;96545.00;;;8.98;100.00
57606;BME280;43430;48.204;11.556;2023-02-19T10:19:09;96543.50;;;9.30;100.00
57606;BME280;43430;48.204;11.556;2023-02-19T10:21:34;96531.94;;;9.31;100.00
57606;BME280;43430;48.204;11.556;2023-02-19T10:24:01;96541.63;;;9.17;100.00
57606;BME280;43430;48.204;11.556;2023-02-19T10:26:28;96544.50;;;9.22;100.00
57606;BME280;43430;48.204;11.556;2023-02-19T10:29:01;96541.47;;;9.39;100.00
57606;BME280;43430;48.204;11.556;2023-02-19T10:31:26;96545.06;;;9.18;100.00
57606;BME280;43430;48.204;11.556;2023-02-19T10:33:53;96559.44;;;9.22;100.00
57606;BME280;43430;48.204;11.556;2023-02-19T10:36:25;96562.47;;;9.25;100.00
57606;BME280;43430;48.204;11.556;2023-02-19T10:38:52;96563.88;;;9.15;100.00
57606;BME280;43430;48.204;11.556;2023-02-19T10:41:19;96549.88;;;9.01;100.00
57606;BME280;43430;48.204;11.556;2023-02-19T10:46:32;96550.00;;;9.47;100.00
57606;BME280;43430;48.204;11.556;2023-02-19T10:49:06;96533.41;;;9.47;100.00
57606;BME280;43430;48.204;11.556;2023-02-19T10:51:39;96528.31;;;9.39;100.00
57606;BME280;43430;48.204;11.556;2023-02-19T10:56:36;96525.09;;;9.43;100.00
57606;BME280;43430;48.204;11.556;2023-02-19T11:01:57;96524.88;;;9.51;100.00
57606;BME280;43430;48.204;11.556;2023-02-19T11:04:23;96519.00;;;9.49;100.00
57606;BME280;43430;48.204;11.556;2023-02-19T11:06:49;96510.50;;;9.41;100.00
57606;BME280;43430;48.204;11.556;2023-02-19T11:09:26;96512.53;;;9.52;100.00
57606;BME280;43430;48.204;11.556;2023-02-19T11:11:55;96504.22;;;9.35;100.00
57606;BME280;43430;48.204;11.556;2023-02-19T11:14:21;96512.09;;;9.35;100.00
57606;BME280;43430;48.204;11.556;2023-02-19T11:16:57;96512.91;;;9.36;100.00
57606;BME280;43430;48.204;11.556;2023-02-19T11:19:28;96523.47;;;9.49;100.00
57606;BME280;43430;48.204;11.556;2023-02-19T11:21:56;96518.03;;;9.64;100.00
57606;BME280;43430;48.204;11.556;2023-02-19T11:24:24;96512.53;;;9.65;100.00
57606;BME280;43430;48.204;11.556;2023-02-19T11:26:51;96514.56;;;9.63;100.00
57606;BME280;43430;48.204;11.556;2023-02-19T11:29:19;96521.47;;;9.64;100.00
57606;BME280;43430;48.204;11.556;2023-02-19T11:31:47;96525.09;;;9.77;100.00
57606;BME280;43430;48.204;11.556;2023-02-19T11:37:10;96522.25;;;9.65;100.00
57606;BME280;43430;48.204;11.556;2023-02-19T11:39:35;96521.63;;;9.49;100.00
57606;BME280;43430;48.204;11.556;2023-02-19T11:42:14;96540.84;;;9.30;100.00
57606;BME280;43430;48.204;11.556;2023-02-19T11:47:34;96535.06;;;8.93;100.00
57606;BME280;43430;48.204;11.556;2023-02-19T11:52:40;96533.88;;;8.96;100.00
57606;BME280;43430;48.204;11.556;2023-02-19T12:02:59;96551.88;;;8.92;100.00
57606;BME280;43430;48.204;11.556;2023-02-19T12:08:40;96537.97;;;9.05;100.00
57606;BME280;43430;48.204;11.556;2023-02-19T12:21:57;96538.84;;;9.52;100.00
57606;BME280;43430;48.204;11.556;2023-02-19T12:29:47;96546.38;;;9.62;100.00
57606;BME280;43430;48.204;11.556;2023-02-19T12:35:04;96555.25;;;9.41;100.00
57606;BME280;43430;48.204;11.556;2023-02-19T12:42:53;96579.28;;;9.18;100.00
57606;BME280;43430;48.204;11.556;2023-02-19T12:45:25;96597.00;;;8.96;100.00
57606;BME280;43430;48.204;11.556;2023-02-19T12:48:11;96607.03;;;8.79;100.00
57606;BME280;43430;48.204;11.556;2023-02-19T12:50:41;96587.25;;;8.48;100.00
57606;BME280;43430;48.204;11.556;2023-02-19T12:55:40;96576.09;;;8.46;100.00
57606;BME280;43430;48.204;11.556;2023-02-19T12:58:09;96584.63;;;8.48;100.00
57606;BME280;43430;48.204;11.556;2023-02-19T13:00:44;96586.28;;;8.56;100.00
57606;BME280;43430;48.204;11.556;2023-02-19T13:03:21;96591.16;;;8.59;100.00
57606;BME280;43430;48.204;11.556;2023-02-19T13:06:03;96602.56;;;8.73;100.00
57606;BME280;43430;48.204;11.556;2023-02-19T13:08:31;96596.03;;;8.62;100.00
57606;BME280;43430;48.204;11.556;2023-02-19T13:11:00;96598.44;;;8.57;100.00
57606;BME280;43430;48.204;11.556;2023-02-19T13:13:40;96587.53;;;8.67;100.00
57606;BME280;43430;48.204;11.556;2023-02-19T13:16:09;96583.47;;;8.58;100.00
57606;BME280;43430;48.204;11.556;2023-02-19T13:18:42;96585.13;;;8.65;100.00
57606;BME280;43430;48.204;11.556;2023-02-19T13:21:09;96589.41;;;8.73;100.00
57606;BME280;43430;48.204;11.556;2023-02-19T13:23:35;96587.84;;;8.85;100.00
57606;BME280;43430;48.204;11.556;2023-02-19T13:26:37;96598.16;;;8.87;100.00
57606;BME280;43430;48.204;11.556;2023-02-19T13:29:13;96583.66;;;8.97;100.00
57606;BME280;43430;48.204;11.556;2023-02-19T13:36:57;96565.69;;;9.08;100.00
57606;BME280;43430;48.204;11.556;2023-02-19T13:39:23;96565.09;;;9.12;100.00
57606;BME280;43430;48.204;11.556;2023-02-19T13:41:52;96571.31;;;8.98;100.00
57606;BME280;43430;48.204;11.556;2023-02-19T13:44:19;96566.03;;;8.91;100.00
57606;BME280;43430;48.204;11.556;2023-02-19T13:46:45;96568.25;;;8.94;100.00
57606;BME280;43430;48.204;11.556;2023-02-19T13:51:55;96571.13;;;8.99;100.00
57606;BME280;43430;48.204;11.556;2023-02-19T13:56:46;96581.28;;;9.09;100.00
57606;BME280;43430;48.204;11.556;2023-02-19T14:04:28;96566.03;;;8.91;100.00
57606;BME280;43430;48.204;11.556;2023-02-19T14:24:57;96568.84;;;8.48;100.00
57606;BME280;43430;48.204;11.556;2023-02-19T14:27:23;96569.31;;;8.59;100.00
57606;BME280;43430;48.204;11.556;2023-02-19T14:29:49;96577.16;;;8.52;100.00
57606;BME280;43430;48.204;11.556;2023-02-19T14:32:18;96578.56;;;8.48;100.00
57606;BME280;43430;48.204;11.556;2023-02-19T14:34:44;96585.84;;;8.52;100.00
57606;BME280;43430;48.204;11.556;2023-02-19T14:37:16;96570.03;;;8.46;100.00
57606;BME280;43430;48.204;11.556;2023-02-19T14:39:43;96574.50;;;8.45;100.00
57606;BME280;43430;48.204;11.556;2023-02-19T14:42:21;96571.72;;;8.53;100.00
57606;BME280;43430;48.204;11.556;2023-02-19T14:44:57;96582.25;;;8.53;100.00
57606;BME280;43430;48.204;11.556;2023-02-19T14:47:24;96578.69;;;8.68;100.00
57606;BME280;43430;48.204;11.556;2023-02-19T14:52:26;96602.03;;;8.56;100.00
57606;BME280;43430;48.204;11.556;2023-02-19T14:54:59;96600.00;;;8.51;100.00
57606;BME280;43430;48.204;11.556;2023-02-19T14:57:28;96605.00;;;8.46;100.00
57606;BME280;43430;48.204;11.556;2023-02-19T14:59:58;96610.59;;;8.37;100.00
57606;BME280;43430;48.204;11.556;2023-02-19T15:02:25;96615.72;;;8.45;100.00
57606;BME280;43430;48.204;11.556;2023-02-19T15:04:51;96617.22;;;8.54;100.00
57606;BME280;43430;48.204;11.556;2023-02-19T15:07:24;96614.16;;;8.50;100.00
57606;BME280;43430;48.204;11.556;2023-02-19T15:09:51;96609.72;;;8.51;100.00
57606;BME280;43430;48.204;11.556;2023-02-19T15:12:19;96608.47;;;8.47;100.00
57606;BME280;43430;48.204;11.556;2023-02-19T15:14:45;96621.03;;;8.51;100.00